createdAt,value
2018-08-12T00:03:29.124Z,99.90
2018-08-12T00:05:59.699Z,99.90
2018-08-12T00:08:30.389Z,99.90
2018-08-12T00:11:01.364Z,99.90
2018-08-12T00:13:32.510Z,99.90
2018-08-12T00:16:03.193Z,99.90
2018-08-12T00:18:33.900Z,99.90
2018-08-12T00:21:04.644Z,99.90
2018-08-12T00:23:35.320Z,99.90
2018-08-12T00:26:06.196Z,99.90
2018-08-12T00:31:54.433Z,99.90
2018-08-12T00:34:25.486Z,99.90
2018-08-12T00:36:56.568Z,99.90
2018-08-12T00:39:27.773Z,99.90
2018-08-12T00:41:58.816Z,99.90
2018-08-12T00:44:29.891Z,99.90
2018-08-12T00:47:00.936Z,99.90
2018-08-12T00:52:38.610Z,99.90
2018-08-12T00:55:10.104Z,99.90
2018-08-12T00:57:40.737Z,99.90
2018-08-12T01:03:18.561Z,99.90
2018-08-12T01:05:49.394Z,99.90
2018-08-12T01:08:48.587Z,99.90
2018-08-12T01:11:19.483Z,99.90
2018-08-12T01:13:50.433Z,99.90
2018-08-12T01:16:21.354Z,99.90
2018-08-12T01:21:59.377Z,99.90
2018-08-12T01:24:30.302Z,99.90
2018-08-12T01:27:01.139Z,99.90
2018-08-12T01:29:32.071Z,99.90
2018-08-12T01:32:03.091Z,99.90
2018-08-12T01:34:34.105Z,99.90
2018-08-12T01:37:05.416Z,99.90
2018-08-12T01:39:36.504Z,99.90
2018-08-12T01:42:07.565Z,99.90
2018-08-12T01:44:39.143Z,99.90
2018-08-12T01:47:10.278Z,99.90
2018-08-12T01:49:41.161Z,99.90
2018-08-12T01:52:12.272Z,99.90
2018-08-12T01:54:43.145Z,99.90
2018-08-12T01:57:14.099Z,99.90
2018-08-12T01:59:45.515Z,99.90
2018-08-12T02:02:16.388Z,99.90
2018-08-12T02:04:47.236Z,99.90
2018-08-12T02:07:18.085Z,99.90
2018-08-12T02:09:48.973Z,99.90
2018-08-12T02:12:20.144Z,99.90
2018-08-12T02:14:51.002Z,99.90
2018-08-12T02:17:21.903Z,99.90
2018-08-12T02:19:52.733Z,99.90
2018-08-12T02:22:23.754Z,99.90
2018-08-12T02:24:54.758Z,99.90
2018-08-12T02:27:25.861Z,99.90
2018-08-12T02:29:56.915Z,99.90
2018-08-12T02:32:27.724Z,99.90
2018-08-12T02:34:58.553Z,99.90
2018-08-12T02:37:29.622Z,99.90
2018-08-12T02:40:01.047Z,99.90
2018-08-12T02:42:31.896Z,99.90
2018-08-12T02:45:03.043Z,99.90
2018-08-12T02:47:34.075Z,99.90
2018-08-12T02:50:04.941Z,99.90
2018-08-12T02:52:35.848Z,99.90
2018-08-12T02:55:07.470Z,99.90
2018-08-12T02:57:38.444Z,99.90
2018-08-12T03:00:10.209Z,99.90
2018-08-12T03:02:41.317Z,99.90
2018-08-12T03:05:12.849Z,99.90
2018-08-12T03:07:43.999Z,99.90
2018-08-12T03:10:15.056Z,99.90
2018-08-12T03:12:45.897Z,99.90
2018-08-12T03:15:17.120Z,99.90
2018-08-12T03:17:48.106Z,99.90
2018-08-12T03:20:19.053Z,99.90
2018-08-12T03:22:49.951Z,99.90
2018-08-12T03:25:20.914Z,99.90
2018-08-12T03:30:58.936Z,99.90
2018-08-12T03:33:29.908Z,99.90
2018-08-12T03:36:00.826Z,99.90
2018-08-12T03:41:39.056Z,99.90
2018-08-12T03:44:10.407Z,99.90
2018-08-12T03:46:41.518Z,99.90
2018-08-12T03:49:12.477Z,99.90
2018-08-12T03:51:43.459Z,99.90
2018-08-12T03:54:14.395Z,99.90
2018-08-12T03:56:45.882Z,99.90
2018-08-12T03:59:17.151Z,99.90
2018-08-12T04:01:48.410Z,99.90
2018-08-12T04:07:25.962Z,99.90
2018-08-12T04:09:56.669Z,99.90
2018-08-12T04:12:27.447Z,99.90
2018-08-12T04:14:58.119Z,99.90
2018-08-12T04:17:30.674Z,99.90
2018-08-12T04:20:03.312Z,99.90
2018-08-12T04:22:34.089Z,99.90
2018-08-12T04:25:04.931Z,99.90
2018-08-12T04:27:37.677Z,99.90
2018-08-12T04:30:11.958Z,99.90
2018-08-12T04:32:44.635Z,99.90
2018-08-12T04:35:17.682Z,99.90
2018-08-12T04:37:50.599Z,99.90
2018-08-12T04:40:23.104Z,99.90
2018-08-12T04:42:56.231Z,99.90
2018-08-12T04:48:49.429Z,99.90
2018-08-12T04:51:22.010Z,99.90
2018-08-12T04:53:54.624Z,99.90
2018-08-12T04:56:25.451Z,99.90
2018-08-12T04:58:58.268Z,99.90
2018-08-12T05:04:51.375Z,99.90
2018-08-12T05:07:23.719Z,99.90
2018-08-12T05:09:56.024Z,99.90
2018-08-12T05:12:28.458Z,99.90
2018-08-12T05:15:00.753Z,99.90
2018-08-12T05:17:33.226Z,99.90
2018-08-12T05:20:05.867Z,99.90
2018-08-12T05:22:38.213Z,99.90
2018-08-12T05:25:10.650Z,99.90
2018-08-12T05:27:43.831Z,99.90
2018-08-12T05:30:16.496Z,99.90
2018-08-12T05:32:49.312Z,99.90
2018-08-12T05:35:21.796Z,99.90
2018-08-12T05:37:54.214Z,99.90
2018-08-12T05:40:26.602Z,99.90
2018-08-12T05:42:58.913Z,99.90
2018-08-12T05:45:31.363Z,99.90
2018-08-12T05:48:03.822Z,99.90
2018-08-12T05:53:57.977Z,99.90
2018-08-12T05:56:30.764Z,99.90
2018-08-12T05:59:03.695Z,99.90
2018-08-12T06:01:36.456Z,99.90
2018-08-12T06:04:09.402Z,99.90
2018-08-12T06:06:42.172Z,99.90
2018-08-12T06:09:15.190Z,99.90
2018-08-12T06:11:48.053Z,99.90
2018-08-12T06:14:21.008Z,99.90
2018-08-12T06:16:53.762Z,99.90
2018-08-12T06:19:26.544Z,99.90
2018-08-12T06:21:59.257Z,99.90
2018-08-12T06:24:32.041Z,99.90
2018-08-12T06:27:04.806Z,99.90
2018-08-12T06:29:37.773Z,99.90
2018-08-12T06:32:10.621Z,99.90
2018-08-12T06:34:43.406Z,99.90
2018-08-12T06:37:16.968Z,99.90
2018-08-12T06:39:54.226Z,99.90
2018-08-12T06:42:28.464Z,99.90
2018-08-12T06:45:01.583Z,99.90
2018-08-12T06:51:02.837Z,99.90
2018-08-12T06:53:35.518Z,99.90
2018-08-12T06:56:10.271Z,99.90
2018-08-12T06:58:42.959Z,99.90
2018-08-12T07:01:15.545Z,99.90
2018-08-12T07:03:48.892Z,99.90
2018-08-12T07:06:21.366Z,99.90
2018-08-12T07:08:53.889Z,99.90
2018-08-12T07:11:26.383Z,99.90
2018-08-12T07:17:20.063Z,99.90
2018-08-12T07:19:52.553Z,99.90
2018-08-12T07:22:24.962Z,99.90
2018-08-12T07:24:57.361Z,99.90
2018-08-12T07:27:29.918Z,99.90
2018-08-12T07:30:02.413Z,99.90
2018-08-12T07:32:35.011Z,99.90
2018-08-12T07:35:08.733Z,99.90
2018-08-12T07:37:42.247Z,99.90
2018-08-12T07:40:20.594Z,99.90
2018-08-12T07:46:14.651Z,99.90
2018-08-12T07:48:47.382Z,99.90
2018-08-12T07:54:51.636Z,99.90
2018-08-12T07:57:23.896Z,99.90
2018-08-12T07:59:56.345Z,99.90
2018-08-12T08:02:28.717Z,99.90
2018-08-12T08:05:00.977Z,99.90
2018-08-12T08:07:57.345Z,99.90
2018-08-12T08:10:29.693Z,99.90
2018-08-12T08:13:02.057Z,99.90
2018-08-12T08:15:35.190Z,99.90
2018-08-12T08:18:07.970Z,99.90
2018-08-12T08:20:40.574Z,99.90
2018-08-12T08:23:13.155Z,99.90
2018-08-12T08:25:45.695Z,99.90
2018-08-12T08:28:18.149Z,99.90
2018-08-12T08:30:50.521Z,99.90
2018-08-12T08:33:23.033Z,99.90
2018-08-12T08:35:55.684Z,99.90
2018-08-12T08:38:28.802Z,99.90
2018-08-12T08:41:01.210Z,99.90
2018-08-12T08:43:33.559Z,99.90
2018-08-12T08:46:06.053Z,99.90
2018-08-12T08:52:00.325Z,99.90
2018-08-12T08:54:32.840Z,99.90
2018-08-12T08:57:05.189Z,99.90
2018-08-12T08:59:37.641Z,99.90
2018-08-12T09:02:10.232Z,99.90
2018-08-12T09:04:42.894Z,99.90
2018-08-12T09:07:15.746Z,99.90
2018-08-12T09:09:48.388Z,99.90
2018-08-12T09:12:20.926Z,99.90
2018-08-12T09:14:53.296Z,99.90
2018-08-12T09:17:25.864Z,99.90
2018-08-12T09:19:58.357Z,99.90
2018-08-12T09:22:30.861Z,99.90
2018-08-12T09:25:03.516Z,99.90
2018-08-12T09:27:35.904Z,99.90
2018-08-12T09:30:16.682Z,99.90
2018-08-12T09:32:50.064Z,99.90
2018-08-12T09:35:22.672Z,99.90
2018-08-12T09:37:55.323Z,99.90
2018-08-12T09:40:28.386Z,99.90
2018-08-12T09:43:00.941Z,99.90
2018-08-12T09:45:33.418Z,99.90
2018-08-12T09:48:06.060Z,99.90
2018-08-12T09:50:38.484Z,99.90
2018-08-12T09:53:10.897Z,99.90
2018-08-12T09:55:43.459Z,99.90
2018-08-12T09:58:15.849Z,99.90
2018-08-12T10:00:48.294Z,99.90
2018-08-12T10:03:20.923Z,99.90
2018-08-12T10:05:53.528Z,99.90
2018-08-12T10:08:25.901Z,99.90
2018-08-12T10:10:58.430Z,99.90
2018-08-12T10:13:30.940Z,99.90
2018-08-12T10:16:03.750Z,99.90
2018-08-12T10:18:36.452Z,99.90
2018-08-12T10:21:09.521Z,99.90
2018-08-12T10:23:42.046Z,99.90
2018-08-12T10:26:14.711Z,99.90
2018-08-12T10:28:47.513Z,99.90
2018-08-12T10:31:20.118Z,99.90
2018-08-12T10:33:52.738Z,99.90
2018-08-12T10:36:25.372Z,99.90
2018-08-12T10:38:57.895Z,99.90
2018-08-12T10:41:30.368Z,99.90
2018-08-12T10:44:02.748Z,99.90
2018-08-12T10:46:35.391Z,99.90
2018-08-12T10:49:08.019Z,99.90
2018-08-12T10:51:40.619Z,99.90
2018-08-12T10:54:13.576Z,99.90
2018-08-12T10:56:46.319Z,99.90
2018-08-12T10:59:20.006Z,99.90
2018-08-12T11:01:52.653Z,99.90
2018-08-12T11:04:25.101Z,99.90
2018-08-12T11:06:57.917Z,99.90
2018-08-12T11:12:51.858Z,99.90
2018-08-12T11:15:24.262Z,99.90
2018-08-12T11:17:56.703Z,99.90
2018-08-12T11:20:29.251Z,99.90
2018-08-12T11:23:01.570Z,99.90
2018-08-12T11:25:33.806Z,99.90
2018-08-12T11:28:06.331Z,99.90
2018-08-12T11:30:38.824Z,99.90
2018-08-12T11:33:11.150Z,99.90
2018-08-12T11:35:43.539Z,99.90
2018-08-12T11:38:16.001Z,99.90
2018-08-12T11:40:48.401Z,99.90
2018-08-12T11:43:21.282Z,99.90
2018-08-12T11:45:53.704Z,99.90
2018-08-12T11:48:25.962Z,99.90
2018-08-12T11:50:58.202Z,99.90
2018-08-12T11:53:58.559Z,99.90
2018-08-12T11:56:31.322Z,99.90
2018-08-12T11:59:03.789Z,99.90
2018-08-12T12:01:36.268Z,99.90
2018-08-12T12:04:08.765Z,99.90
2018-08-12T12:06:41.231Z,99.90
2018-08-12T12:09:14.034Z,99.90
2018-08-12T12:11:46.600Z,99.90
2018-08-12T12:14:18.973Z,99.90
2018-08-12T12:16:51.618Z,99.90
2018-08-12T12:22:50.629Z,99.90
2018-08-12T12:25:23.664Z,99.90
2018-08-12T12:27:56.272Z,99.90
2018-08-12T12:30:28.774Z,99.90
2018-08-12T12:33:01.205Z,99.90
2018-08-12T12:35:33.751Z,99.90
2018-08-12T12:38:06.328Z,99.90
2018-08-12T12:40:38.746Z,99.90
2018-08-12T12:43:12.166Z,99.90
2018-08-12T12:45:44.643Z,99.90
2018-08-12T12:48:17.361Z,99.90
2018-08-12T12:50:49.685Z,99.90
2018-08-12T12:53:22.898Z,99.90
2018-08-12T12:55:56.491Z,99.90
2018-08-12T12:58:30.944Z,99.90
2018-08-12T13:04:24.688Z,99.90
2018-08-12T13:06:58.433Z,99.90
2018-08-12T13:09:30.654Z,99.90
2018-08-12T13:12:03.334Z,99.90
2018-08-12T13:14:35.840Z,99.90
2018-08-12T13:17:08.299Z,99.90
2018-08-12T13:20:12.961Z,99.90
2018-08-12T13:22:46.913Z,99.90
2018-08-12T13:28:38.934Z,99.90
2018-08-12T13:34:17.063Z,99.90
2018-08-12T13:36:48.358Z,99.90
2018-08-12T13:39:18.821Z,99.90
2018-08-12T13:41:50.410Z,99.90
2018-08-12T13:44:20.974Z,99.90
2018-08-12T13:46:52.837Z,99.90
2018-08-12T13:49:23.780Z,99.90
2018-08-12T13:51:54.263Z,99.90
2018-08-12T13:54:24.747Z,99.90
2018-08-12T13:56:55.337Z,99.90
2018-08-12T13:59:25.797Z,99.90
2018-08-12T14:01:56.677Z,99.90
2018-08-12T14:04:27.250Z,99.90
2018-08-12T14:06:57.831Z,99.90
2018-08-12T14:09:28.368Z,99.90
2018-08-12T14:11:58.733Z,99.90
2018-08-12T14:14:29.218Z,99.90
2018-08-12T14:16:59.650Z,99.90
2018-08-12T14:19:30.267Z,99.90
2018-08-12T14:22:00.706Z,99.90
2018-08-12T14:24:31.127Z,99.90
2018-08-12T14:27:01.870Z,99.90
2018-08-12T14:29:32.283Z,99.90
2018-08-12T14:32:02.721Z,99.90
2018-08-12T14:34:34.936Z,99.90
2018-08-12T14:37:05.624Z,99.90
2018-08-12T14:39:36.312Z,99.90
2018-08-12T14:42:08.720Z,99.90
2018-08-12T14:44:39.222Z,99.90
2018-08-12T14:47:13.704Z,99.90
2018-08-12T14:49:46.629Z,99.90
2018-08-12T14:52:18.083Z,99.90
2018-08-12T14:54:51.035Z,99.90
2018-08-12T14:57:23.504Z,99.90
2018-08-12T14:59:53.948Z,99.90
2018-08-12T15:02:24.288Z,99.90
2018-08-12T15:04:54.920Z,99.90
2018-08-12T15:07:25.411Z,99.90
2018-08-12T15:09:55.979Z,99.90
2018-08-12T15:12:26.446Z,99.90
2018-08-12T15:14:56.894Z,99.90
2018-08-12T15:17:29.065Z,99.90
2018-08-12T15:19:59.651Z,99.90
2018-08-12T15:22:30.063Z,99.90
2018-08-12T15:25:00.590Z,99.90
2018-08-12T15:27:31.220Z,99.90
2018-08-12T15:30:01.782Z,99.90
2018-08-12T15:32:33.877Z,99.90
2018-08-12T15:35:06.180Z,99.90
2018-08-12T15:37:38.427Z,99.90
2018-08-12T15:40:14.517Z,99.90
2018-08-12T15:42:46.836Z,99.90
2018-08-12T15:45:19.829Z,99.90
2018-08-12T15:47:52.219Z,99.90
2018-08-12T15:50:24.245Z,99.90
2018-08-12T15:52:56.368Z,99.90
2018-08-12T15:55:28.513Z,99.90
2018-08-12T15:58:00.755Z,99.90
2018-08-12T16:00:32.980Z,99.90
2018-08-12T16:03:05.168Z,99.90
2018-08-12T16:05:39.204Z,99.90
2018-08-12T16:08:11.531Z,99.90
2018-08-12T16:10:44.086Z,99.90
2018-08-12T16:13:21.094Z,99.90
2018-08-12T16:15:54.164Z,99.90
2018-08-12T16:18:30.338Z,99.90
2018-08-12T16:21:03.386Z,99.90
2018-08-12T16:23:35.763Z,99.90
2018-08-12T16:26:08.112Z,99.90
2018-08-12T16:28:40.260Z,99.90
2018-08-12T16:31:13.112Z,99.90
2018-08-12T16:33:45.288Z,99.90
2018-08-12T16:36:17.528Z,99.90
2018-08-12T16:38:49.597Z,99.90
2018-08-12T16:41:21.780Z,99.90
2018-08-12T16:43:54.044Z,99.90
2018-08-12T16:46:26.543Z,99.90
2018-08-12T16:49:00.330Z,99.90
2018-08-12T16:51:35.904Z,99.90
2018-08-12T16:54:08.842Z,99.90
2018-08-12T16:56:40.928Z,99.90
2018-08-12T16:59:12.995Z,99.90
2018-08-12T17:01:45.322Z,99.90
2018-08-12T17:04:17.639Z,99.90
2018-08-12T17:06:49.833Z,99.90
2018-08-12T17:09:23.520Z,99.90
2018-08-12T17:11:55.583Z,99.90
2018-08-12T17:14:27.820Z,99.90
2018-08-12T17:17:00.050Z,99.90
2018-08-12T17:19:32.226Z,99.90
2018-08-12T17:22:05.571Z,99.90
2018-08-12T17:24:37.635Z,99.90
2018-08-12T17:27:10.093Z,99.90
2018-08-12T17:29:42.274Z,99.90
2018-08-12T17:32:14.348Z,99.90
2018-08-12T17:34:46.567Z,99.90
2018-08-12T17:37:18.678Z,99.90
2018-08-12T17:39:51.234Z,99.90
2018-08-12T17:42:23.364Z,99.90
2018-08-12T17:44:55.499Z,99.90
2018-08-12T17:47:28.010Z,99.90
2018-08-12T17:50:00.113Z,99.90
2018-08-12T17:52:32.256Z,99.90
2018-08-12T17:55:04.419Z,99.90
2018-08-12T17:57:37.068Z,99.90
2018-08-12T18:00:11.172Z,98.20
2018-08-12T18:02:43.356Z,98.00
2018-08-12T18:05:16.088Z,95.80
2018-08-12T18:07:48.357Z,96.70
2018-08-12T18:10:21.002Z,94.40
2018-08-12T18:12:53.097Z,94.70
2018-08-12T18:15:27.223Z,93.00
2018-08-12T18:18:00.876Z,94.80
2018-08-12T18:20:33.902Z,96.30
2018-08-12T18:23:07.421Z,99.50
2018-08-12T18:25:39.613Z,99.90
2018-08-12T18:28:11.962Z,99.90
2018-08-12T18:30:48.210Z,99.00
2018-08-12T18:33:20.407Z,97.20
2018-08-12T18:35:52.377Z,93.30
2018-08-12T18:38:24.508Z,93.90
2018-08-12T18:40:56.765Z,96.60
2018-08-12T18:43:32.097Z,98.50
2018-08-12T18:46:05.172Z,99.70
2018-08-12T18:48:37.446Z,97.20
2018-08-12T18:51:09.660Z,96.00
2018-08-12T18:53:41.684Z,92.60
2018-08-12T18:56:14.113Z,91.20
2018-08-12T18:58:46.372Z,91.50
2018-08-12T19:01:19.885Z,90.40
2018-08-12T19:03:52.050Z,88.00
2018-08-12T19:06:24.311Z,89.40
2018-08-12T19:08:56.669Z,93.00
2018-08-12T19:11:28.792Z,94.10
2018-08-12T19:14:00.889Z,92.90
2018-08-12T19:16:32.938Z,92.60
2018-08-12T19:19:05.167Z,90.50
2018-08-12T19:21:37.291Z,91.70
2018-08-12T19:24:09.452Z,91.50
2018-08-12T19:26:41.585Z,91.70
2018-08-12T19:29:13.716Z,93.00
2018-08-12T19:31:46.010Z,92.00
2018-08-12T19:34:18.368Z,91.90
2018-08-12T19:36:50.448Z,93.00
2018-08-12T19:39:22.714Z,93.30
2018-08-12T19:41:55.895Z,91.60
2018-08-12T19:44:28.554Z,92.00
2018-08-12T19:47:06.133Z,94.70
2018-08-12T19:49:38.429Z,95.30
2018-08-12T19:52:10.608Z,95.00
2018-08-12T19:54:42.630Z,95.30
2018-08-12T19:57:15.237Z,95.30
2018-08-12T19:59:47.356Z,95.60
2018-08-12T20:02:20.795Z,94.50
2018-08-12T20:04:56.230Z,93.90
2018-08-12T20:07:30.414Z,90.90
2018-08-12T20:10:03.399Z,91.30
2018-08-12T20:12:35.677Z,93.40
2018-08-12T20:15:10.179Z,94.20
2018-08-12T20:17:42.918Z,92.30
2018-08-12T20:20:15.218Z,91.60
2018-08-12T20:22:47.353Z,90.40
2018-08-12T20:25:19.685Z,91.00
2018-08-12T20:27:51.804Z,92.30
2018-08-12T20:30:23.963Z,92.60
2018-08-12T20:32:56.252Z,92.30
2018-08-12T20:35:28.482Z,92.70
2018-08-12T20:38:00.536Z,93.40
2018-08-12T20:40:32.701Z,93.60
2018-08-12T20:43:04.720Z,93.30
2018-08-12T20:45:36.829Z,92.80
2018-08-12T20:48:09.257Z,92.90
2018-08-12T20:50:41.590Z,95.40
2018-08-12T20:53:13.696Z,94.80
2018-08-12T20:55:45.811Z,94.00
2018-08-12T20:58:17.878Z,94.00
2018-08-12T21:00:49.961Z,93.40
2018-08-12T21:03:22.028Z,94.50
2018-08-12T21:05:54.221Z,93.90
2018-08-12T21:08:26.890Z,95.30
2018-08-12T21:10:59.252Z,96.00
2018-08-12T21:13:31.431Z,95.00
2018-08-12T21:16:03.547Z,93.60
2018-08-12T21:18:37.321Z,94.50
2018-08-12T21:21:09.397Z,93.40
2018-08-12T21:23:41.535Z,94.30
2018-08-12T21:26:13.826Z,94.40
2018-08-12T21:28:45.903Z,94.50
2018-08-12T21:31:18.080Z,93.70
2018-08-12T21:33:50.340Z,94.10
2018-08-12T21:36:22.605Z,95.50
2018-08-12T21:38:54.699Z,93.10
2018-08-12T21:41:26.829Z,93.80
2018-08-12T21:43:58.895Z,96.30
2018-08-12T21:46:31.005Z,97.00
2018-08-12T21:49:03.156Z,95.60
2018-08-12T21:51:35.474Z,97.90
2018-08-12T21:54:07.651Z,97.90
2018-08-12T21:56:39.789Z,95.40
2018-08-12T21:59:11.814Z,98.30
2018-08-12T22:01:44.176Z,97.80
2018-08-12T22:04:16.306Z,95.30
2018-08-12T22:06:48.512Z,96.80
2018-08-12T22:09:20.727Z,99.90
2018-08-12T22:11:52.760Z,99.90
2018-08-12T22:14:24.928Z,99.90
2018-08-12T22:16:56.974Z,99.90
2018-08-12T22:19:29.127Z,99.90
2018-08-12T22:22:01.307Z,99.90
2018-08-12T22:24:33.559Z,99.90
2018-08-12T22:27:05.979Z,99.90
2018-08-12T22:29:37.979Z,99.90
2018-08-12T22:32:10.267Z,99.90
2018-08-12T22:34:42.343Z,99.90
2018-08-12T22:37:14.728Z,99.90
2018-08-12T22:39:46.758Z,99.90
2018-08-12T22:42:18.859Z,99.90
2018-08-12T22:44:51.122Z,99.90
2018-08-12T22:47:23.677Z,99.90
2018-08-12T22:49:55.939Z,99.90
2018-08-12T22:52:29.172Z,99.90
2018-08-12T22:55:01.271Z,99.90
2018-08-12T22:57:33.399Z,99.90
2018-08-12T23:00:05.803Z,99.90
2018-08-12T23:02:38.016Z,99.90
2018-08-12T23:05:10.630Z,99.90
2018-08-12T23:07:42.818Z,99.90
2018-08-12T23:10:14.920Z,99.90
2018-08-12T23:12:47.054Z,99.90
2018-08-12T23:15:28.469Z,99.90
2018-08-12T23:18:01.480Z,99.90
2018-08-12T23:20:33.560Z,99.90
2018-08-12T23:23:05.752Z,99.90
2018-08-12T23:25:37.820Z,99.90
2018-08-12T23:28:09.918Z,99.90
2018-08-12T23:30:42.180Z,99.90
2018-08-12T23:33:14.170Z,99.90
2018-08-12T23:35:46.431Z,99.90
2018-08-12T23:38:18.552Z,99.90
2018-08-12T23:40:50.728Z,99.90
2018-08-12T23:43:24.007Z,99.90
2018-08-12T23:45:56.221Z,99.90
2018-08-12T23:48:28.867Z,99.90
2018-08-12T23:51:01.301Z,99.90
2018-08-12T23:53:34.800Z,99.90
2018-08-12T23:56:07.321Z,99.90
2018-08-12T23:58:39.642Z,99.90
